createdAt,value
2023-05-02T00:00:28.925Z,67
2023-05-02T00:01:36.013Z,67
2023-05-02T00:02:43.223Z,67
2023-05-02T00:03:50.323Z,67
2023-05-02T00:06:03.938Z,68
2023-05-02T00:07:10.988Z,68
2023-05-02T00:08:18.150Z,68
2023-05-02T00:09:25.211Z,68
2023-05-02T00:10:32.297Z,68
2023-05-02T00:11:38.961Z,68
2023-05-02T00:12:46.021Z,68
2023-05-02T00:13:53.129Z,68
2023-05-02T00:15:00.267Z,68
2023-05-02T00:16:07.383Z,68
2023-05-02T00:17:14.004Z,68
2023-05-02T00:18:21.032Z,68
2023-05-02T00:19:28.165Z,68
2023-05-02T00:20:35.261Z,68
2023-05-02T00:21:42.336Z,68
2023-05-02T00:22:48.995Z,68
2023-05-02T00:23:56.021Z,68
2023-05-02T00:25:03.102Z,68
2023-05-02T00:26:10.266Z,69
2023-05-02T00:27:17.375Z,69
2023-05-02T00:28:23.907Z,69
2023-05-02T00:29:31.005Z,69
2023-05-02T00:30:38.142Z,69
2023-05-02T00:31:45.285Z,69
2023-05-02T00:32:52.389Z,69
2023-05-02T00:33:59.102Z,69
2023-05-02T00:35:06.098Z,69
2023-05-02T00:36:13.132Z,69
2023-05-02T00:37:20.328Z,69
2023-05-02T00:38:27.355Z,69
2023-05-02T00:39:33.911Z,69
2023-05-02T00:40:41.001Z,69
2023-05-02T00:41:48.172Z,69
2023-05-02T00:42:55.295Z,69
2023-05-02T00:44:02.391Z,69
2023-05-02T00:45:09.100Z,69
2023-05-02T00:46:16.088Z,69
2023-05-02T00:47:23.203Z,69
2023-05-02T00:48:30.295Z,69
2023-05-02T00:49:37.381Z,69
2023-05-02T00:50:43.938Z,69
2023-05-02T00:51:51.021Z,69
2023-05-02T00:52:58.241Z,69
2023-05-02T00:54:05.358Z,69
2023-05-02T00:55:12.381Z,69
2023-05-02T00:56:19.020Z,69
2023-05-02T00:57:26.103Z,70
2023-05-02T00:58:33.196Z,70
2023-05-02T00:59:40.285Z,70
2023-05-02T01:00:47.387Z,70
2023-05-02T01:01:54.029Z,70
2023-05-02T01:03:01.161Z,70
2023-05-02T01:04:08.411Z,70
2023-05-02T01:05:15.353Z,70
2023-05-02T01:06:22.411Z,70
2023-05-02T01:07:28.965Z,70
2023-05-02T01:09:43.205Z,70
2023-05-02T01:10:50.293Z,70
2023-05-02T01:11:57.436Z,70
2023-05-02T01:14:11.098Z,70
2023-05-02T01:15:18.213Z,70
2023-05-02T01:16:25.380Z,70
2023-05-02T01:17:32.404Z,71
2023-05-02T01:18:39.066Z,71
2023-05-02T01:19:46.079Z,71
2023-05-02T01:20:53.195Z,71
2023-05-02T01:22:00.282Z,71
2023-05-02T01:23:07.431Z,71
2023-05-02T01:24:14.093Z,71
2023-05-02T01:25:21.104Z,71
2023-05-02T01:26:28.215Z,71
2023-05-02T01:27:35.350Z,71
2023-05-02T01:28:42.472Z,71
2023-05-02T01:29:49.002Z,71
2023-05-02T01:30:56.145Z,71
2023-05-02T01:32:03.269Z,71
2023-05-02T01:33:10.329Z,71
2023-05-02T01:34:17.430Z,71
2023-05-02T01:35:24.016Z,71
2023-05-02T01:36:31.083Z,71
2023-05-02T01:37:38.206Z,71
2023-05-02T01:38:45.411Z,71
2023-05-02T01:39:52.399Z,71
2023-05-02T01:40:59.030Z,71
2023-05-02T01:42:08.552Z,71
2023-05-02T01:43:13.276Z,72
2023-05-02T01:44:20.364Z,72
2023-05-02T01:45:26.959Z,72
2023-05-02T01:46:34.084Z,72
2023-05-02T01:47:41.134Z,72
2023-05-02T01:48:48.275Z,72
2023-05-02T01:49:55.411Z,72
2023-05-02T01:51:01.931Z,72
2023-05-02T01:52:09.023Z,72
2023-05-02T01:53:16.161Z,72
2023-05-02T01:54:23.296Z,72
2023-05-02T01:55:30.334Z,72
2023-05-02T01:56:36.899Z,72
2023-05-02T01:57:44.071Z,72
2023-05-02T01:58:51.135Z,72
2023-05-02T01:59:58.653Z,72
2023-05-02T02:01:05.988Z,72
2023-05-02T02:02:11.912Z,72
2023-05-02T02:03:19.152Z,72
2023-05-02T02:04:26.293Z,72
2023-05-02T02:05:33.253Z,72
2023-05-02T02:06:40.521Z,72
2023-05-02T02:07:47.019Z,72
2023-05-02T02:08:54.105Z,72
2023-05-02T02:10:01.422Z,72
2023-05-02T02:11:08.318Z,72
2023-05-02T02:13:21.929Z,72
2023-05-02T02:14:29.086Z,72
2023-05-02T02:15:36.224Z,72
2023-05-02T02:16:43.331Z,72
2023-05-02T02:17:50.492Z,72
2023-05-02T02:18:57.060Z,72
2023-05-02T02:20:04.078Z,72
2023-05-02T02:21:11.155Z,73
2023-05-02T02:22:18.293Z,73
2023-05-02T02:23:25.438Z,73
2023-05-02T02:24:31.987Z,73
2023-05-02T02:25:39.092Z,73
2023-05-02T02:26:46.228Z,73
2023-05-02T02:27:53.270Z,73
2023-05-02T02:29:00.449Z,73
2023-05-02T02:30:07.056Z,73
2023-05-02T02:31:14.169Z,73
2023-05-02T02:32:21.176Z,73
2023-05-02T02:33:28.337Z,73
2023-05-02T02:34:35.408Z,73
2023-05-02T02:35:42.075Z,73
2023-05-02T02:36:49.133Z,73
2023-05-02T02:37:56.229Z,73
2023-05-02T02:39:03.377Z,73
2023-05-02T02:40:10.416Z,73
2023-05-02T02:41:17.021Z,73
2023-05-02T02:42:24.141Z,73
2023-05-02T02:43:31.270Z,73
2023-05-02T02:44:38.368Z,73
2023-05-02T02:45:45.455Z,73
2023-05-02T02:46:52.044Z,73
2023-05-02T02:47:59.271Z,73
2023-05-02T02:49:06.230Z,73
2023-05-02T02:50:13.339Z,73
2023-05-02T02:51:20.427Z,73
2023-05-02T02:52:27.017Z,73
2023-05-02T02:53:34.155Z,73
2023-05-02T02:54:41.234Z,73
2023-05-02T02:55:48.379Z,73
2023-05-02T02:56:55.500Z,73
2023-05-02T02:58:02.015Z,73
2023-05-02T02:59:09.177Z,74
2023-05-02T03:00:16.256Z,74
2023-05-02T03:01:23.447Z,74
2023-05-02T03:02:30.475Z,74
2023-05-02T03:03:37.124Z,74
2023-05-02T03:04:44.199Z,74
2023-05-02T03:05:51.301Z,74
2023-05-02T03:06:58.398Z,74
2023-05-02T03:08:05.452Z,74
2023-05-02T03:09:12.054Z,74
2023-05-02T03:10:19.156Z,74
2023-05-02T03:11:27.730Z,74
2023-05-02T03:12:33.367Z,74
2023-05-02T03:13:40.420Z,74
2023-05-02T03:14:47.141Z,74
2023-05-02T03:17:01.271Z,74
2023-05-02T03:18:08.387Z,74
2023-05-02T03:19:15.504Z,74
2023-05-02T03:20:22.024Z,74
2023-05-02T03:21:29.177Z,74
2023-05-02T03:22:36.255Z,74
2023-05-02T03:23:43.409Z,75
2023-05-02T03:24:50.439Z,75
2023-05-02T03:25:57.146Z,75
2023-05-02T03:27:04.192Z,75
2023-05-02T03:28:11.250Z,75
2023-05-02T03:29:18.389Z,75
2023-05-02T03:30:25.604Z,75
2023-05-02T03:31:32.113Z,75
2023-05-02T03:32:39.297Z,75
2023-05-02T03:33:46.339Z,75
2023-05-02T03:34:53.344Z,75
2023-05-02T03:36:00.488Z,75
2023-05-02T03:37:07.102Z,75
2023-05-02T03:38:14.201Z,75
2023-05-02T03:39:21.277Z,75
2023-05-02T03:40:28.401Z,75
2023-05-02T03:41:35.524Z,75
2023-05-02T03:42:42.105Z,75
2023-05-02T03:43:49.233Z,75
2023-05-02T03:44:56.309Z,75
2023-05-02T03:46:03.409Z,75
2023-05-02T03:47:10.523Z,75
2023-05-02T03:48:17.092Z,75
2023-05-02T03:49:24.269Z,75
2023-05-02T03:50:31.291Z,75
2023-05-02T03:51:38.453Z,75
2023-05-02T03:52:45.571Z,75
2023-05-02T03:53:52.197Z,75
2023-05-02T03:54:59.216Z,75
2023-05-02T03:56:06.389Z,75
2023-05-02T03:57:13.384Z,75
2023-05-02T03:58:20.525Z,75
2023-05-02T03:59:27.146Z,75
2023-05-02T04:00:34.251Z,75
2023-05-02T04:01:41.372Z,75
2023-05-02T04:02:48.640Z,75
2023-05-02T04:03:55.648Z,75
2023-05-02T04:05:02.199Z,75
2023-05-02T04:06:09.311Z,75
2023-05-02T04:07:16.383Z,75
2023-05-02T04:08:23.417Z,75
2023-05-02T04:09:30.556Z,75
2023-05-02T04:10:37.151Z,75
2023-05-02T04:11:44.245Z,75
2023-05-02T04:12:51.302Z,75
2023-05-02T04:13:58.493Z,75
2023-05-02T04:15:05.563Z,75
2023-05-02T04:16:12.200Z,75
2023-05-02T04:17:19.406Z,75
2023-05-02T04:18:26.346Z,75
2023-05-02T04:20:40.079Z,75
2023-05-02T04:21:47.210Z,75
2023-05-02T04:22:54.252Z,75
2023-05-02T04:24:01.380Z,75
2023-05-02T04:25:08.462Z,75
2023-05-02T04:26:15.052Z,75
2023-05-02T04:27:22.130Z,75
2023-05-02T04:28:29.268Z,75
2023-05-02T04:29:36.467Z,75
2023-05-02T04:30:43.485Z,75
2023-05-02T04:31:50.098Z,75
2023-05-02T04:32:57.214Z,75
2023-05-02T04:34:04.372Z,75
2023-05-02T04:35:11.368Z,75
2023-05-02T04:36:18.460Z,75
2023-05-02T04:37:25.110Z,75
2023-05-02T04:38:32.147Z,75
2023-05-02T04:39:39.280Z,75
2023-05-02T04:40:46.396Z,75
2023-05-02T04:41:53.530Z,75
2023-05-02T04:43:00.108Z,76
2023-05-02T04:44:07.232Z,76
2023-05-02T04:45:14.263Z,76
2023-05-02T04:47:28.519Z,76
2023-05-02T04:48:35.084Z,76
2023-05-02T04:49:42.190Z,76
2023-05-02T04:50:49.282Z,76
2023-05-02T04:51:56.439Z,75
2023-05-02T04:53:03.497Z,76
2023-05-02T04:54:10.141Z,75
2023-05-02T04:55:17.192Z,76
2023-05-02T04:56:24.297Z,76
2023-05-02T04:57:31.349Z,76
2023-05-02T04:58:38.543Z,76
2023-05-02T04:59:45.133Z,76
2023-05-02T05:00:52.170Z,76
2023-05-02T05:01:59.372Z,76
2023-05-02T05:03:06.548Z,76
2023-05-02T05:04:13.776Z,76
2023-05-02T05:05:20.144Z,76
2023-05-02T05:06:27.284Z,76
2023-05-02T05:07:34.332Z,76
2023-05-02T05:08:41.435Z,76
2023-05-02T05:09:48.533Z,76
2023-05-02T05:10:55.126Z,76
2023-05-02T05:12:02.264Z,76
2023-05-02T05:13:09.350Z,76
2023-05-02T05:14:16.500Z,76
2023-05-02T05:15:23.587Z,75
2023-05-02T05:16:30.195Z,75
2023-05-02T05:17:37.306Z,75
2023-05-02T05:18:44.328Z,76
2023-05-02T05:19:51.424Z,75
2023-05-02T05:20:58.568Z,76
2023-05-02T05:22:05.147Z,76
2023-05-02T05:24:19.427Z,76
2023-05-02T05:25:26.441Z,76
2023-05-02T05:26:33.594Z,76
2023-05-02T05:27:40.153Z,76
2023-05-02T05:28:47.228Z,76
2023-05-02T05:29:54.386Z,76
2023-05-02T05:31:01.437Z,76
2023-05-02T05:32:08.712Z,76
2023-05-02T05:33:15.247Z,76
2023-05-02T05:34:22.201Z,76
2023-05-02T05:35:29.408Z,76
2023-05-02T05:36:36.476Z,76
2023-05-02T05:37:43.547Z,76
2023-05-02T05:38:50.195Z,76
2023-05-02T05:39:57.459Z,76
2023-05-02T05:41:04.374Z,76
2023-05-02T05:42:11.435Z,76
2023-05-02T05:43:18.607Z,76
2023-05-02T05:44:25.188Z,76
2023-05-02T05:45:32.358Z,76
2023-05-02T05:46:39.488Z,76
2023-05-02T05:47:46.514Z,76
2023-05-02T05:48:53.583Z,76
2023-05-02T05:50:00.476Z,76
2023-05-02T05:51:07.275Z,76
2023-05-02T05:52:14.517Z,76
2023-05-02T05:53:21.504Z,76
2023-05-02T05:54:28.628Z,75
2023-05-02T05:55:37.338Z,76
2023-05-02T05:56:42.259Z,75
2023-05-02T05:57:49.437Z,75
2023-05-02T05:58:56.528Z,75
2023-05-02T06:00:03.796Z,75
2023-05-02T06:01:10.164Z,75
2023-05-02T06:02:17.313Z,75
2023-05-02T06:03:24.601Z,75
2023-05-02T06:04:31.498Z,75
2023-05-02T06:05:38.640Z,75
2023-05-02T06:06:45.248Z,75
2023-05-02T06:07:52.259Z,75
2023-05-02T06:08:59.439Z,75
2023-05-02T06:10:06.500Z,75
2023-05-02T06:11:13.584Z,75
2023-05-02T06:12:20.243Z,75
2023-05-02T06:13:27.297Z,75
2023-05-02T06:15:41.633Z,75
2023-05-02T06:16:48.707Z,75
2023-05-02T06:17:55.300Z,75
2023-05-02T06:19:02.320Z,75
2023-05-02T06:20:09.458Z,75
2023-05-02T06:21:16.568Z,75
2023-05-02T06:22:23.635Z,75
2023-05-02T06:23:30.205Z,75
2023-05-02T06:24:37.344Z,74
2023-05-02T06:25:44.429Z,74
2023-05-02T06:27:58.106Z,74
2023-05-02T06:29:05.277Z,74
2023-05-02T06:30:12.298Z,74
2023-05-02T06:31:19.488Z,74
2023-05-02T06:32:26.545Z,74
2023-05-02T06:33:33.079Z,74
2023-05-02T06:34:40.308Z,74
2023-05-02T06:35:47.365Z,74
2023-05-02T06:36:54.436Z,74
2023-05-02T06:38:01.511Z,74
2023-05-02T06:39:08.200Z,74
2023-05-02T06:40:15.311Z,74
2023-05-02T06:41:22.305Z,74
2023-05-02T06:42:29.446Z,73
2023-05-02T06:43:36.544Z,73
2023-05-02T06:44:43.132Z,73
2023-05-02T06:45:50.254Z,73
2023-05-02T06:46:57.400Z,74
2023-05-02T06:48:04.434Z,74
2023-05-02T06:49:11.599Z,74
2023-05-02T06:50:18.127Z,74
2023-05-02T06:51:25.257Z,74
2023-05-02T06:52:32.340Z,74
2023-05-02T06:53:39.462Z,74
2023-05-02T06:54:46.571Z,74
2023-05-02T06:55:53.120Z,74
2023-05-02T06:57:00.418Z,74
2023-05-02T06:58:07.366Z,73
2023-05-02T06:59:14.595Z,73
2023-05-02T07:00:21.522Z,73
2023-05-02T07:01:28.226Z,73
2023-05-02T07:02:35.278Z,73
2023-05-02T07:03:42.429Z,73
2023-05-02T07:04:49.433Z,73
2023-05-02T07:05:56.567Z,73
2023-05-02T07:07:03.175Z,73
2023-05-02T07:08:10.320Z,73
2023-05-02T07:09:17.439Z,72
2023-05-02T07:10:24.427Z,72
2023-05-02T07:11:31.537Z,73
2023-05-02T07:12:38.179Z,72
2023-05-02T07:13:45.304Z,72
2023-05-02T07:14:52.449Z,72
2023-05-02T07:15:59.511Z,72
2023-05-02T07:17:06.698Z,72
2023-05-02T07:18:13.270Z,72
2023-05-02T07:19:20.329Z,72
2023-05-02T07:20:27.438Z,72
2023-05-02T07:21:34.547Z,72
2023-05-02T07:22:41.588Z,72
2023-05-02T07:23:48.186Z,72
2023-05-02T07:24:55.397Z,71
2023-05-02T07:26:03.824Z,71
2023-05-02T07:27:09.527Z,71
2023-05-02T07:28:16.625Z,71
2023-05-02T07:29:23.186Z,70
2023-05-02T07:31:37.588Z,69
2023-05-02T07:32:44.566Z,69
2023-05-02T07:33:51.569Z,69
2023-05-02T07:34:58.263Z,68
2023-05-02T07:36:05.317Z,68
2023-05-02T07:37:12.415Z,68
2023-05-02T07:38:19.522Z,68
2023-05-02T07:39:26.126Z,68
2023-05-02T07:40:33.282Z,68
2023-05-02T07:41:40.337Z,68
2023-05-02T07:43:54.540Z,67
2023-05-02T07:45:01.621Z,67
2023-05-02T07:46:08.380Z,66
2023-05-02T07:47:15.305Z,66
2023-05-02T07:48:22.382Z,65
2023-05-02T07:49:30.022Z,65
2023-05-02T07:50:36.172Z,65
2023-05-02T07:51:43.198Z,65
2023-05-02T07:52:50.335Z,65
2023-05-02T07:53:57.466Z,65
2023-05-02T07:55:04.567Z,64
2023-05-02T07:56:11.124Z,64
2023-05-02T07:57:18.256Z,64
2023-05-02T07:58:25.353Z,63
2023-05-02T07:59:32.441Z,63
2023-05-02T08:00:39.694Z,63
2023-05-02T08:01:46.665Z,63
2023-05-02T08:02:53.448Z,63
2023-05-02T08:04:00.591Z,62
2023-05-02T08:05:07.701Z,62
2023-05-02T08:06:14.707Z,62
2023-05-02T08:07:21.116Z,62
2023-05-02T08:08:28.300Z,62
2023-05-02T08:09:35.415Z,62
2023-05-02T08:10:42.491Z,62
2023-05-02T08:11:49.820Z,62
2023-05-02T08:12:56.164Z,62
2023-05-02T08:14:03.297Z,61
2023-05-02T08:15:10.414Z,61
2023-05-02T08:16:17.529Z,61
2023-05-02T08:17:24.551Z,61
2023-05-02T08:18:31.161Z,61
2023-05-02T08:19:38.358Z,61
2023-05-02T08:20:45.376Z,61
2023-05-02T08:21:52.448Z,61
2023-05-02T08:23:00.374Z,61
2023-05-02T08:24:06.180Z,61
2023-05-02T08:25:13.272Z,61
2023-05-02T08:26:20.380Z,60
2023-05-02T08:27:27.512Z,60
2023-05-02T08:28:34.580Z,59
2023-05-02T08:29:41.223Z,59
2023-05-02T08:30:48.345Z,58
2023-05-02T08:35:16.228Z,58
2023-05-02T08:36:23.278Z,58
2023-05-02T08:37:30.462Z,58
2023-05-02T08:38:37.514Z,58
2023-05-02T08:39:44.671Z,58
2023-05-02T08:40:51.196Z,58
2023-05-02T08:41:58.317Z,57
2023-05-02T08:43:05.404Z,57
2023-05-02T08:44:12.538Z,57
2023-05-02T08:45:19.093Z,57
2023-05-02T08:46:26.250Z,56
2023-05-02T08:47:33.341Z,57
2023-05-02T08:49:47.560Z,57
2023-05-02T08:50:54.094Z,56
2023-05-02T08:52:01.182Z,56
2023-05-02T08:53:08.317Z,56
2023-05-02T08:54:15.424Z,56
2023-05-02T08:55:22.512Z,55
2023-05-02T08:56:29.105Z,55
2023-05-02T08:57:36.265Z,54
2023-05-02T08:58:43.292Z,54
2023-05-02T08:59:50.439Z,54
2023-05-02T09:00:57.546Z,54
2023-05-02T09:02:04.602Z,54
2023-05-02T09:03:11.208Z,54
2023-05-02T09:04:18.346Z,55
2023-05-02T09:05:25.437Z,55
2023-05-02T09:06:32.576Z,55
2023-05-02T09:07:39.136Z,55
2023-05-02T09:08:46.336Z,55
2023-05-02T09:09:53.349Z,55
2023-05-02T09:12:08.748Z,54
2023-05-02T09:13:14.098Z,54
2023-05-02T09:14:21.272Z,54
2023-05-02T09:15:28.344Z,54
2023-05-02T09:16:35.504Z,54
2023-05-02T09:17:42.576Z,54
2023-05-02T09:18:49.192Z,53
2023-05-02T09:19:56.287Z,53
2023-05-02T09:21:03.322Z,53
2023-05-02T09:22:10.416Z,53
2023-05-02T09:23:17.587Z,53
2023-05-02T09:24:24.153Z,52
2023-05-02T09:25:31.294Z,52
2023-05-02T09:26:38.368Z,52
2023-05-02T09:27:45.456Z,51
2023-05-02T09:28:52.536Z,51
2023-05-02T09:29:59.192Z,51
2023-05-02T09:31:06.253Z,51
2023-05-02T09:32:13.355Z,52
2023-05-02T09:33:20.433Z,52
2023-05-02T09:34:27.098Z,51
2023-05-02T09:35:34.136Z,51
2023-05-02T09:36:41.239Z,51
2023-05-02T09:38:55.487Z,51
2023-05-02T09:40:02.621Z,51
2023-05-02T09:41:09.185Z,51
2023-05-02T09:42:16.276Z,51
2023-05-02T09:43:23.353Z,51
2023-05-02T09:44:30.747Z,51
2023-05-02T09:45:37.083Z,51
2023-05-02T09:46:44.274Z,51
2023-05-02T09:47:51.290Z,51
2023-05-02T09:48:58.388Z,51
2023-05-02T09:50:05.502Z,51
2023-05-02T09:51:12.562Z,51
2023-05-02T09:52:19.171Z,51
2023-05-02T09:53:26.315Z,50
2023-05-02T09:54:33.449Z,50
2023-05-02T09:55:40.479Z,50
2023-05-02T09:56:47.085Z,50
2023-05-02T09:57:54.180Z,50
2023-05-02T09:59:01.260Z,50
2023-05-02T10:00:08.390Z,50
2023-05-02T10:01:15.556Z,50
2023-05-02T10:02:22.200Z,50
2023-05-02T10:03:29.205Z,50
2023-05-02T10:04:36.380Z,50
2023-05-02T10:05:43.378Z,50
2023-05-02T10:06:50.603Z,50
2023-05-02T10:07:57.064Z,49
2023-05-02T10:09:04.181Z,49
2023-05-02T10:10:11.276Z,49
2023-05-02T10:11:18.421Z,49
2023-05-02T10:12:25.527Z,49
2023-05-02T10:13:32.076Z,49
2023-05-02T10:14:39.291Z,49
2023-05-02T10:15:46.330Z,49
2023-05-02T10:16:53.392Z,48
2023-05-02T10:18:00.560Z,49
2023-05-02T10:19:07.117Z,48
2023-05-02T10:20:14.201Z,48
2023-05-02T10:21:21.308Z,49
2023-05-02T10:22:28.448Z,49
2023-05-02T10:23:35.548Z,48
2023-05-02T10:24:42.132Z,48
2023-05-02T10:25:49.199Z,48
2023-05-02T10:26:56.427Z,48
2023-05-02T10:28:03.487Z,48
2023-05-02T10:29:10.571Z,48
2023-05-02T10:30:17.226Z,48
2023-05-02T10:31:24.214Z,48
2023-05-02T10:32:31.369Z,48
2023-05-02T10:33:38.482Z,48
2023-05-02T10:34:45.521Z,48
2023-05-02T10:35:52.134Z,48
2023-05-02T10:36:59.246Z,48
2023-05-02T10:38:06.346Z,48
2023-05-02T10:40:20.605Z,48
2023-05-02T10:42:34.221Z,48
2023-05-02T10:43:41.338Z,47
2023-05-02T10:44:48.455Z,48
2023-05-02T10:45:55.099Z,48
2023-05-02T10:47:02.155Z,48
2023-05-02T10:48:09.300Z,48
2023-05-02T10:49:16.399Z,48
2023-05-02T10:50:23.445Z,48
2023-05-02T10:51:30.552Z,48
2023-05-02T10:52:37.154Z,48
2023-05-02T10:53:44.228Z,48
2023-05-02T10:54:51.336Z,48
2023-05-02T10:55:58.475Z,48
2023-05-02T10:57:05.070Z,48
2023-05-02T10:58:12.128Z,48
2023-05-02T10:59:19.269Z,48
2023-05-02T11:00:26.381Z,48
2023-05-02T11:01:33.666Z,48
2023-05-02T11:02:40.322Z,48
2023-05-02T11:03:47.180Z,48
2023-05-02T11:04:54.291Z,48
2023-05-02T11:06:01.394Z,48
2023-05-02T11:07:08.500Z,48
2023-05-02T11:08:15.092Z,48
2023-05-02T11:09:22.148Z,48
2023-05-02T11:10:29.323Z,48
2023-05-02T11:11:36.394Z,48
2023-05-02T11:12:43.479Z,48
2023-05-02T11:13:50.109Z,48
2023-05-02T11:14:57.258Z,48
2023-05-02T11:16:04.285Z,48
2023-05-02T11:17:11.387Z,48
2023-05-02T11:18:18.509Z,48
2023-05-02T11:19:25.132Z,48
2023-05-02T11:20:32.159Z,48
2023-05-02T11:21:39.311Z,48
2023-05-02T11:22:46.412Z,48
2023-05-02T11:23:53.493Z,48
2023-05-02T11:25:00.414Z,48
2023-05-02T11:26:07.210Z,48
2023-05-02T11:27:14.363Z,48
2023-05-02T11:28:21.381Z,48
2023-05-02T11:29:28.567Z,48
2023-05-02T11:30:35.084Z,48
2023-05-02T11:31:42.226Z,48
2023-05-02T11:32:49.502Z,48
2023-05-02T11:33:56.423Z,48
2023-05-02T11:35:03.491Z,48
2023-05-02T11:36:10.125Z,48
2023-05-02T11:37:17.222Z,48
2023-05-02T11:38:24.380Z,48
2023-05-02T11:39:31.441Z,48
2023-05-02T11:40:38.555Z,48
2023-05-02T11:41:45.131Z,48
2023-05-02T11:42:52.197Z,49
2023-05-02T11:43:59.332Z,49
2023-05-02T11:46:13.586Z,49
2023-05-02T11:47:20.159Z,49
2023-05-02T11:48:27.245Z,49
2023-05-02T11:49:34.311Z,49
2023-05-02T11:50:46.672Z,49
2023-05-02T11:51:48.544Z,50
2023-05-02T11:52:55.117Z,50
2023-05-02T11:54:02.214Z,50
2023-05-02T11:55:10.377Z,50
2023-05-02T11:56:16.467Z,50
2023-05-02T11:57:23.525Z,50
2023-05-02T11:58:30.272Z,50
2023-05-02T11:59:37.252Z,50
2023-05-02T12:00:44.334Z,50
2023-05-02T12:01:51.433Z,50
2023-05-02T12:02:58.690Z,50
2023-05-02T12:04:05.298Z,50
2023-05-02T12:05:12.323Z,50
2023-05-02T12:06:20.029Z,51
2023-05-02T12:08:33.538Z,51
2023-05-02T12:09:40.214Z,50
2023-05-02T12:10:47.278Z,50
2023-05-02T12:11:54.341Z,51
2023-05-02T12:13:01.449Z,51
2023-05-02T12:14:08.586Z,51
2023-05-02T12:15:15.312Z,51
2023-05-02T12:16:22.283Z,51
2023-05-02T12:17:29.404Z,51
2023-05-02T12:18:36.484Z,51
2023-05-02T12:19:43.090Z,51
2023-05-02T12:20:50.203Z,51
2023-05-02T12:21:57.286Z,51
2023-05-02T12:23:04.369Z,51
2023-05-02T12:24:11.477Z,51
2023-05-02T12:25:18.120Z,51
2023-05-02T12:26:25.305Z,51
2023-05-02T12:27:32.268Z,51
2023-05-02T12:28:39.408Z,51
2023-05-02T12:29:46.474Z,51
2023-05-02T12:30:53.069Z,51
2023-05-02T12:32:00.469Z,51
2023-05-02T12:33:07.313Z,51
2023-05-02T12:34:14.367Z,51
2023-05-02T12:35:21.550Z,52
2023-05-02T12:36:28.099Z,52
2023-05-02T12:37:35.219Z,52
2023-05-02T12:38:42.271Z,52
2023-05-02T12:39:49.429Z,52
2023-05-02T12:40:56.512Z,52
2023-05-02T12:42:03.069Z,52
2023-05-02T12:43:10.236Z,52
2023-05-02T12:44:17.320Z,52
2023-05-02T12:45:24.453Z,52
2023-05-02T12:46:31.940Z,52
2023-05-02T12:47:38.148Z,52
2023-05-02T12:49:52.287Z,52
2023-05-02T12:50:59.504Z,52
2023-05-02T12:52:08.821Z,52
2023-05-02T12:53:13.092Z,52
2023-05-02T12:54:20.223Z,52
2023-05-02T12:55:27.326Z,52
2023-05-02T12:56:34.435Z,52
2023-05-02T12:57:41.502Z,52
2023-05-02T12:58:48.161Z,52
2023-05-02T12:59:55.275Z,52
2023-05-02T13:01:02.340Z,52
2023-05-02T13:02:09.565Z,52
2023-05-02T13:03:16.696Z,52
2023-05-02T13:04:23.143Z,52
2023-05-02T13:05:30.204Z,52
2023-05-02T13:06:37.523Z,52
2023-05-02T13:07:44.465Z,52
2023-05-02T13:08:51.540Z,52
2023-05-02T13:09:58.198Z,52
2023-05-02T13:11:05.266Z,52
2023-05-02T13:12:12.335Z,53
2023-05-02T13:13:19.451Z,52
2023-05-02T13:14:26.566Z,53
2023-05-02T13:15:33.120Z,53
2023-05-02T13:16:40.340Z,53
2023-05-02T13:17:47.456Z,53
2023-05-02T13:18:54.490Z,52
2023-05-02T13:20:02.269Z,53
2023-05-02T13:21:08.179Z,53
2023-05-02T13:22:15.262Z,53
2023-05-02T13:23:22.356Z,52
2023-05-02T13:24:29.457Z,53
2023-05-02T13:25:36.107Z,52
2023-05-02T13:26:43.116Z,52
2023-05-02T13:27:50.363Z,52
2023-05-02T13:28:57.395Z,52
2023-05-02T13:30:08.477Z,52
2023-05-02T13:31:11.071Z,52
2023-05-02T13:32:18.165Z,52
2023-05-02T13:33:25.275Z,52
2023-05-02T13:34:32.414Z,52
2023-05-02T13:36:46.483Z,52
2023-05-02T13:37:53.164Z,52
2023-05-02T13:39:00.279Z,52
2023-05-02T13:40:07.399Z,52
2023-05-02T13:41:14.456Z,52
2023-05-02T13:42:21.045Z,52
2023-05-02T13:43:28.172Z,52
2023-05-02T13:44:35.280Z,52
2023-05-02T13:45:42.387Z,52
2023-05-02T13:46:49.630Z,52
2023-05-02T13:47:56.150Z,52
2023-05-02T13:49:03.161Z,52
2023-05-02T13:50:10.293Z,52
2023-05-02T13:51:17.415Z,52
2023-05-02T13:53:31.067Z,52
2023-05-02T13:54:38.229Z,52
2023-05-02T13:55:45.315Z,52
2023-05-02T13:56:52.388Z,52
2023-05-02T13:57:59.509Z,52
2023-05-02T13:59:07.943Z,52
2023-05-02T14:00:13.216Z,52
2023-05-02T14:01:20.318Z,52
2023-05-02T14:02:27.525Z,52
2023-05-02T14:03:34.546Z,52
2023-05-02T14:04:41.227Z,52
2023-05-02T14:05:48.214Z,52
2023-05-02T14:06:55.337Z,53
2023-05-02T14:08:02.410Z,52
2023-05-02T14:09:09.545Z,52
2023-05-02T14:10:16.151Z,52
2023-05-02T14:11:23.187Z,52
2023-05-02T14:12:30.308Z,53
2023-05-02T14:13:37.431Z,53
2023-05-02T14:14:43.983Z,53
2023-05-02T14:15:51.138Z,53
2023-05-02T14:16:58.219Z,53
2023-05-02T14:18:05.358Z,53
2023-05-02T14:19:12.417Z,53
2023-05-02T14:20:19.048Z,53
2023-05-02T14:21:26.131Z,53
2023-05-02T14:22:33.230Z,53
2023-05-02T14:23:40.344Z,52
2023-05-02T14:24:47.485Z,52
2023-05-02T14:25:54.017Z,53
2023-05-02T14:27:01.107Z,53
2023-05-02T14:28:08.235Z,53
2023-05-02T14:29:15.352Z,53
2023-05-02T14:30:22.421Z,53
2023-05-02T14:31:29.088Z,53
2023-05-02T14:32:36.197Z,53
2023-05-02T14:33:43.236Z,53
2023-05-02T14:34:50.336Z,53
2023-05-02T14:35:57.458Z,53
2023-05-02T14:37:04.006Z,53
2023-05-02T14:38:11.125Z,53
2023-05-02T14:39:18.259Z,53
2023-05-02T14:40:25.411Z,53
2023-05-02T14:41:32.452Z,53
2023-05-02T14:42:39.052Z,53
2023-05-02T14:43:46.163Z,53
2023-05-02T14:44:53.225Z,53
2023-05-02T14:46:00.354Z,53
2023-05-02T14:47:07.634Z,53
2023-05-02T14:48:14.162Z,53
2023-05-02T14:49:21.134Z,53
2023-05-02T14:50:28.288Z,53
2023-05-02T14:51:35.346Z,53
2023-05-02T14:52:42.519Z,53
2023-05-02T14:53:49.075Z,53
2023-05-02T14:54:56.223Z,53
2023-05-02T14:57:10.395Z,53
2023-05-02T14:58:17.554Z,53
2023-05-02T14:59:24.090Z,53
2023-05-02T15:00:31.211Z,53
2023-05-02T15:01:38.431Z,53
2023-05-02T15:02:45.470Z,53
2023-05-02T15:04:59.088Z,53
2023-05-02T15:06:06.250Z,53
2023-05-02T15:07:13.294Z,54
2023-05-02T15:08:20.372Z,54
2023-05-02T15:09:27.014Z,53
2023-05-02T15:10:34.057Z,53
2023-05-02T15:11:41.171Z,53
2023-05-02T15:12:48.297Z,54
2023-05-02T15:13:57.451Z,54
2023-05-02T15:15:02.020Z,54
2023-05-02T15:16:09.207Z,54
2023-05-02T15:17:16.204Z,54
2023-05-02T15:18:23.328Z,54
2023-05-02T15:19:30.393Z,53
2023-05-02T15:20:37.535Z,53
2023-05-02T15:21:44.083Z,53
2023-05-02T15:22:51.204Z,54
2023-05-02T15:23:58.320Z,54
2023-05-02T15:25:05.567Z,54
2023-05-02T15:26:12.509Z,54
2023-05-02T15:27:19.182Z,54
2023-05-02T15:28:26.226Z,54
2023-05-02T15:29:33.418Z,54
2023-05-02T15:30:40.451Z,54
2023-05-02T15:31:47.607Z,54
2023-05-02T15:32:54.139Z,54
2023-05-02T15:34:01.195Z,54
2023-05-02T15:35:08.323Z,54
2023-05-02T15:36:15.448Z,54
2023-05-02T15:37:21.993Z,54
2023-05-02T15:38:29.158Z,54
2023-05-02T15:39:36.251Z,54
2023-05-02T15:40:43.320Z,54
2023-05-02T15:41:50.426Z,54
2023-05-02T15:42:57.042Z,54
2023-05-02T15:44:04.123Z,54
2023-05-02T15:45:11.263Z,54
2023-05-02T15:46:18.425Z,54
2023-05-02T15:47:25.468Z,54
2023-05-02T15:48:32.016Z,54
2023-05-02T15:49:39.172Z,54
2023-05-02T15:50:46.265Z,54
2023-05-02T15:51:53.344Z,54
2023-05-02T15:53:00.434Z,54
2023-05-02T15:54:07.056Z,54
2023-05-02T15:55:14.256Z,54
2023-05-02T15:56:21.341Z,54
2023-05-02T15:57:28.454Z,54
2023-05-02T15:58:34.933Z,54
2023-05-02T16:00:49.205Z,54
2023-05-02T16:01:56.351Z,54
2023-05-02T16:03:04.152Z,54
2023-05-02T16:04:10.559Z,54
2023-05-02T16:05:17.061Z,54
2023-05-02T16:06:24.178Z,54
2023-05-02T16:07:31.237Z,55
2023-05-02T16:08:38.375Z,55
2023-05-02T16:09:45.479Z,55
2023-05-02T16:10:52.040Z,55
2023-05-02T16:11:59.190Z,55
2023-05-02T16:13:06.296Z,55
2023-05-02T16:14:13.354Z,55
2023-05-02T16:15:19.981Z,55
2023-05-02T16:16:27.137Z,55
2023-05-02T16:17:34.191Z,55
2023-05-02T16:18:41.267Z,55
2023-05-02T16:19:48.397Z,55
2023-05-02T16:20:55.515Z,55
2023-05-02T16:22:02.056Z,55
2023-05-02T16:23:09.202Z,55
2023-05-02T16:24:16.305Z,55
2023-05-02T16:25:23.438Z,55
2023-05-02T16:26:30.471Z,55